Time;durP1;ratioP1;P1;durP2;ratioP2;P2;SDS_P1;SDS_P2;PMS_P1;PMS_P2;Temp;Humidity;BMP_temperature;BMP_pressure;BME280_temperature;BME280_humidity;BME280_pressure;Samples;Min_cycle;Max_cycle;Signal;HPM_P1;HPM_P2
2021/09/14 00:00:28;;;;;;;13.00;6.32;;;;;;;;;;4773845;30;20051;-85
2021/09/14 00:02:54;;;;;;;9.25;6.05;;;;;;;;;;4787978;30;20084;-85
2021/09/14 00:05:19;;;;;;;11.32;6.60;;;;;;;;;;4777993;30;20032;-84
2021/09/14 00:07:44;;;;;;;9.57;6.50;;;;;;;;;;4774587;30;20078;-86
2021/09/14 00:10:10;;;;;;;8.88;6.05;;;;;;;;;;4779962;30;20100;-86
2021/09/14 00:12:36;;;;;;;10.02;6.22;;;;;;;;;;4772828;30;20041;-85
2021/09/14 00:15:02;;;;;;;10.43;6.85;;;;;;;;;;4759931;30;20035;-84
2021/09/14 00:17:27;;;;;;;11.18;6.90;;;;;;;;;;4771220;30;20039;-84
2021/09/14 00:19:53;;;;;;;10.23;6.57;;;;;;;;;;4774309;30;20364;-85
2021/09/14 00:22:18;;;;;;;9.48;6.70;;;;;;;;;;4769680;30;20042;-85
2021/09/14 00:24:44;;;;;;;10.15;6.15;;;;;;;;;;4787812;30;20038;-85
2021/09/14 00:27:09;;;;;;;12.82;6.50;;;;;;;;;;4773697;30;20031;-84
2021/09/14 00:29:35;;;;;;;11.73;6.65;;;;;;;;;;4787547;30;20470;-85
2021/09/14 00:32:00;;;;;;;9.25;6.43;;;;;;;;;;4771972;30;20779;-86
2021/09/14 00:34:26;;;;;;;11.73;6.38;;;;;;;;;;4784330;30;20032;-85
2021/09/14 00:36:51;;;;;;;10.95;6.88;;;;;;;;;;4752407;30;20173;-84
2021/09/14 00:39:16;;;;;;;11.38;6.82;;;;;;;;;;4783258;30;20046;-84
2021/09/14 00:41:42;;;;;;;10.63;7.38;;;;;;;;;;4774499;30;20042;-85
2021/09/14 00:44:07;;;;;;;10.57;6.82;;;;;;;;;;4774409;30;20046;-85
2021/09/14 00:46:33;;;;;;;10.05;7.22;;;;;;;;;;4765822;30;20491;-84
2021/09/14 00:48:59;;;;;;;11.15;7.13;;;;;;;;;;4774137;30;20050;-86
2021/09/14 00:51:24;;;;;;;10.55;6.90;;;;;;;;;;4771124;30;20040;-85
2021/09/14 00:53:50;;;;;;;11.10;6.97;;;;;;;;;;4740788;30;20051;-84
2021/09/14 00:56:17;;;;;;;10.27;6.88;;;;;;;;;;4766950;30;20204;-84
2021/09/14 00:58:43;;;;;;;9.18;7.00;;;;;;;;;;4789831;30;20023;-85
2021/09/14 01:01:08;;;;;;;10.65;7.13;;;;;;;;;;4777273;30;20031;-85
2021/09/14 01:03:34;;;;;;;11.23;7.10;;;;;;;;;;4773655;30;20027;-85
2021/09/14 01:06:01;;;;;;;9.93;7.05;;;;;;;;;;4788781;30;20027;-85
2021/09/14 01:08:28;;;;;;;10.82;7.05;;;;;;;;;;4772988;30;20130;-84
2021/09/14 01:10:53;;;;;;;13.80;6.80;;;;;;;;;;4788367;30;20027;-85
2021/09/14 01:13:19;;;;;;;9.20;6.90;;;;;;;;;;4772018;30;20172;-85
2021/09/14 01:15:44;;;;;;;10.98;6.78;;;;;;;;;;4747853;30;20027;-84
2021/09/14 01:18:10;;;;;;;12.30;7.93;;;;;;;;;;4772104;30;20039;-85
2021/09/14 01:20:35;;;;;;;9.52;7.00;;;;;;;;;;4774043;30;20035;-84
2021/09/14 01:23:00;;;;;;;11.25;6.57;;;;;;;;;;4770918;30;20058;-84
2021/09/14 01:25:26;;;;;;;10.32;6.97;;;;;;;;;;4789641;29;20035;-85
2021/09/14 01:27:52;;;;;;;9.57;6.80;;;;;;;;;;4773003;30;20736;-85
2021/09/14 01:30:19;;;;;;;10.57;7.10;;;;;;;;;;4772857;30;20042;-85
2021/09/14 01:32:51;;;;;;;10.82;7.00;;;;;;;;;;4760732;30;20039;-86
2021/09/14 01:35:19;;;;;;;11.52;7.07;;;;;;;;;;4779448;30;20027;-86
2021/09/14 01:37:45;;;;;;;10.35;7.18;;;;;;;;;;4787121;30;20097;-85
2021/09/14 01:40:12;;;;;;;10.35;7.28;;;;;;;;;;4788112;30;20506;-84
2021/09/14 01:42:38;;;;;;;12.23;7.38;;;;;;;;;;4788023;30;20054;-83
2021/09/14 01:45:05;;;;;;;10.95;7.38;;;;;;;;;;4774945;30;20043;-84
2021/09/14 01:47:31;;;;;;;10.75;7.53;;;;;;;;;;4786349;30;20039;-85
2021/09/14 01:49:56;;;;;;;11.25;7.20;;;;;;;;;;4772919;30;20038;-85
2021/09/14 01:52:22;;;;;;;12.90;8.00;;;;;;;;;;4758321;30;20031;-85
2021/09/14 01:54:50;;;;;;;11.65;7.65;;;;;;;;;;4771850;30;20508;-84
2021/09/14 01:57:20;;;;;;;14.13;8.07;;;;;;;;;;4787018;30;22320;-84
2021/09/14 01:59:45;;;;;;;13.88;8.50;;;;;;;;;;4773398;30;20407;-85
2021/09/14 02:02:21;;;;;;;10.52;7.63;;;;;;;;;;4757093;30;20039;-86
2021/09/14 02:40:25;;;;;;;11.25;7.93;;;;;;;;;;4768131;30;20054;-85
2021/09/14 02:43:26;;;;;;;12.45;8.50;;;;;;;;;;4788047;30;20421;-85
2021/09/14 02:59:22;;;;;;;14.20;8.98;;;;;;;;;;4762197;30;20101;-85
2021/09/14 03:01:48;;;;;;;12.55;8.55;;;;;;;;;;4756990;30;22009;-86
2021/09/14 03:04:15;;;;;;;12.30;9.13;;;;;;;;;;4758084;30;20070;-86
2021/09/14 03:06:40;;;;;;;13.25;9.35;;;;;;;;;;4764654;30;20076;-85
2021/09/14 03:09:06;;;;;;;13.70;9.18;;;;;;;;;;4786745;30;20038;-85
2021/09/14 03:11:31;;;;;;;12.50;8.95;;;;;;;;;;4788340;29;20039;-84
2021/09/14 03:13:58;;;;;;;12.10;8.88;;;;;;;;;;4790579;29;20059;-85
2021/09/14 03:16:23;;;;;;;13.50;9.02;;;;;;;;;;4768540;30;20031;-85
2021/09/14 03:18:49;;;;;;;12.95;9.10;;;;;;;;;;4771824;30;20560;-84
2021/09/14 03:21:15;;;;;;;14.52;9.38;;;;;;;;;;4769415;30;20031;-84
2021/09/14 03:23:40;;;;;;;12.80;8.73;;;;;;;;;;4771416;30;20043;-86
2021/09/14 03:26:06;;;;;;;12.32;8.85;;;;;;;;;;4786749;30;20042;-83
2021/09/14 03:28:31;;;;;;;14.13;9.10;;;;;;;;;;4750501;30;20400;-85
2021/09/14 03:30:57;;;;;;;12.57;9.10;;;;;;;;;;4756532;30;20038;-86
2021/09/14 03:33:22;;;;;;;12.93;9.27;;;;;;;;;;4763071;30;20505;-84
2021/09/14 03:35:48;;;;;;;12.07;8.88;;;;;;;;;;4774960;30;20046;-86
2021/09/14 03:38:13;;;;;;;12.43;9.40;;;;;;;;;;4774337;30;20039;-85
2021/09/14 03:40:39;;;;;;;12.02;9.38;;;;;;;;;;4779376;30;20050;-84
2021/09/14 03:43:06;;;;;;;14.52;9.38;;;;;;;;;;4789891;30;20031;-84
2021/09/14 03:45:31;;;;;;;13.07;8.90;;;;;;;;;;4789549;29;20121;-84
2021/09/14 03:47:57;;;;;;;14.57;9.52;;;;;;;;;;4754613;30;20126;-84
2021/09/14 03:50:22;;;;;;;13.95;9.38;;;;;;;;;;4772389;30;20055;-84
2021/09/14 03:52:48;;;;;;;11.98;9.05;;;;;;;;;;4775690;30;20043;-84
2021/09/14 03:55:13;;;;;;;14.13;9.45;;;;;;;;;;4763269;30;20499;-85
2021/09/14 03:57:38;;;;;;;16.52;9.70;;;;;;;;;;4769902;30;20049;-85
2021/09/14 04:00:06;;;;;;;14.05;9.07;;;;;;;;;;4773315;30;20040;-86
2021/09/14 04:02:38;;;;;;;13.65;9.68;;;;;;;;;;4772165;30;20040;-86
2021/09/14 04:05:22;;;;;;;11.27;8.77;;;;;;;;;;4774950;30;20032;-84
2021/09/14 04:07:53;;;;;;;12.00;8.63;;;;;;;;;;4774748;30;20039;-84
2021/09/14 04:10:18;;;;;;;13.18;9.00;;;;;;;;;;4739739;30;20046;-85
2021/09/14 04:12:44;;;;;;;12.85;9.13;;;;;;;;;;4761083;30;20039;-84
2021/09/14 04:15:09;;;;;;;14.27;9.85;;;;;;;;;;4765818;30;20517;-85
2021/09/14 04:17:35;;;;;;;12.75;9.55;;;;;;;;;;4770624;30;20773;-84
2021/09/14 04:20:00;;;;;;;15.88;9.80;;;;;;;;;;4789473;30;20038;-84
2021/09/14 04:22:26;;;;;;;13.55;9.38;;;;;;;;;;4767944;30;20039;-84
2021/09/14 04:24:51;;;;;;;14.60;9.70;;;;;;;;;;4775962;30;20515;-84
2021/09/14 04:27:17;;;;;;;11.82;9.48;;;;;;;;;;4774467;30;20043;-85
2021/09/14 04:29:43;;;;;;;13.05;9.57;;;;;;;;;;4774533;30;20039;-85
2021/09/14 04:32:08;;;;;;;14.20;9.40;;;;;;;;;;4786889;29;20073;-85
2021/09/14 04:34:34;;;;;;;13.65;9.23;;;;;;;;;;4775376;30;20571;-83
2021/09/14 04:36:59;;;;;;;14.88;9.35;;;;;;;;;;4770461;30;20062;-85
2021/09/14 04:39:24;;;;;;;13.90;9.77;;;;;;;;;;4774590;30;20039;-83
2021/09/14 04:41:50;;;;;;;13.93;9.18;;;;;;;;;;4770626;30;20066;-83
2021/09/14 04:44:15;;;;;;;16.60;9.18;;;;;;;;;;4758631;30;20110;-83
2021/09/14 04:46:41;;;;;;;13.75;9.18;;;;;;;;;;4773893;30;20039;-84
2021/09/14 04:49:06;;;;;;;14.85;9.43;;;;;;;;;;4774988;30;20067;-84
2021/09/14 04:51:32;;;;;;;15.90;9.95;;;;;;;;;;4759150;30;20059;-86
2021/09/14 04:53:58;;;;;;;14.20;9.43;;;;;;;;;;4768636;30;20086;-84
2021/09/14 04:56:23;;;;;;;13.45;9.23;;;;;;;;;;4787216;29;20031;-84
2021/09/14 04:58:52;;;;;;;12.80;10.10;;;;;;;;;;4787843;30;20027;-85
2021/09/14 05:01:17;;;;;;;15.38;9.98;;;;;;;;;;4787264;29;20031;-84
2021/09/14 05:03:43;;;;;;;13.80;9.70;;;;;;;;;;4756489;30;20388;-85
2021/09/14 05:06:08;;;;;;;13.90;9.75;;;;;;;;;;4769421;30;20043;-84
2021/09/14 05:08:35;;;;;;;15.38;10.98;;;;;;;;;;4774218;30;20038;-84
2021/09/14 05:11:04;;;;;;;14.93;10.63;;;;;;;;;;4760072;30;20039;-84
2021/09/14 05:13:30;;;;;;;14.48;9.77;;;;;;;;;;4788737;30;20043;-84
2021/09/14 05:15:57;;;;;;;14.35;10.70;;;;;;;;;;4762738;30;20500;-84
2021/09/14 05:18:25;;;;;;;17.17;10.73;;;;;;;;;;4775478;29;20035;-85
2021/09/14 05:20:52;;;;;;;15.00;11.15;;;;;;;;;;4786554;29;20066;-85
2021/09/14 05:23:29;;;;;;;17.08;11.43;;;;;;;;;;4789985;30;20031;-83
2021/09/14 05:25:55;;;;;;;22.75;11.05;;;;;;;;;;4773457;30;20041;-86
2021/09/14 05:28:20;;;;;;;15.98;11.13;;;;;;;;;;4767047;30;20043;-84
2021/09/14 05:30:47;;;;;;;16.20;10.77;;;;;;;;;;4771651;30;20040;-84
2021/09/14 05:33:13;;;;;;;17.58;11.98;;;;;;;;;;4780586;30;20039;-86
2021/09/14 05:35:50;;;;;;;18.63;11.15;;;;;;;;;;4763090;30;20050;-84
2021/09/14 05:38:19;;;;;;;14.00;10.88;;;;;;;;;;4772147;30;20063;-85
2021/09/14 05:40:45;;;;;;;15.48;10.93;;;;;;;;;;4765710;30;20106;-83
2021/09/14 05:43:11;;;;;;;18.52;10.80;;;;;;;;;;4775214;30;20096;-84
2021/09/14 05:45:37;;;;;;;18.08;11.07;;;;;;;;;;4762406;30;20484;-83
2021/09/14 05:48:02;;;;;;;15.65;11.10;;;;;;;;;;4775176;30;20095;-84
2021/09/14 05:50:28;;;;;;;14.90;10.95;;;;;;;;;;4760260;30;20184;-85
2021/09/14 05:52:55;;;;;;;14.88;10.98;;;;;;;;;;4789488;29;20043;-84
2021/09/14 05:55:20;;;;;;;15.00;11.00;;;;;;;;;;4786589;30;20512;-83
2021/09/14 05:57:46;;;;;;;17.60;10.85;;;;;;;;;;4760476;30;20050;-83
2021/09/14 06:00:12;;;;;;;16.75;11.60;;;;;;;;;;4744712;30;20046;-84
2021/09/14 06:02:38;;;;;;;16.00;11.02;;;;;;;;;;4789855;30;20034;-83
2021/09/14 06:05:04;;;;;;;14.55;10.95;;;;;;;;;;4758426;30;20465;-84
2021/09/14 06:07:30;;;;;;;16.80;11.65;;;;;;;;;;4783438;30;20504;-85
2021/09/14 06:09:56;;;;;;;17.70;11.95;;;;;;;;;;4773571;30;20064;-83
2021/09/14 06:12:22;;;;;;;15.98;11.32;;;;;;;;;;4788470;30;20530;-83
2021/09/14 06:14:47;;;;;;;16.67;12.02;;;;;;;;;;4772659;30;20488;-83
2021/09/14 06:17:13;;;;;;;16.33;11.75;;;;;;;;;;4772985;30;20034;-86
2021/09/14 06:19:38;;;;;;;15.77;11.73;;;;;;;;;;4759976;30;20403;-84
2021/09/14 06:22:03;;;;;;;18.45;12.60;;;;;;;;;;4770880;30;20479;-84
2021/09/14 06:24:29;;;;;;;19.55;12.90;;;;;;;;;;4773165;30;20035;-83
2021/09/14 06:26:55;;;;;;;18.30;12.93;;;;;;;;;;4786345;30;20035;-83
2021/09/14 06:29:20;;;;;;;16.63;12.05;;;;;;;;;;4757806;30;20039;-84
2021/09/14 06:31:46;;;;;;;17.30;12.43;;;;;;;;;;4774199;30;20085;-83
2021/09/14 06:34:11;;;;;;;18.42;12.77;;;;;;;;;;4773061;30;20031;-85
2021/09/14 06:36:36;;;;;;;18.42;13.10;;;;;;;;;;4756366;30;20028;-84
2021/09/14 06:39:02;;;;;;;17.98;13.13;;;;;;;;;;4773551;30;20051;-85
2021/09/14 06:41:28;;;;;;;20.13;13.13;;;;;;;;;;4781466;30;20043;-85
2021/09/14 06:43:54;;;;;;;20.05;12.38;;;;;;;;;;4756215;30;20031;-84
2021/09/14 06:46:20;;;;;;;18.20;13.32;;;;;;;;;;4771422;30;20092;-85
2021/09/14 06:48:45;;;;;;;18.88;13.23;;;;;;;;;;4784102;30;20035;-85
2021/09/14 06:51:10;;;;;;;20.05;14.02;;;;;;;;;;4786148;30;20270;-84
2021/09/14 06:53:36;;;;;;;21.27;13.40;;;;;;;;;;4771981;30;20064;-85
2021/09/14 06:56:02;;;;;;;16.95;13.18;;;;;;;;;;4758825;30;20082;-84
2021/09/14 06:58:27;;;;;;;20.33;13.77;;;;;;;;;;4787940;30;20391;-83
2021/09/14 07:00:53;;;;;;;17.88;12.95;;;;;;;;;;4776658;30;20063;-85
2021/09/14 07:03:19;;;;;;;22.40;13.90;;;;;;;;;;4771931;30;20526;-85
2021/09/14 07:05:44;;;;;;;19.45;14.23;;;;;;;;;;4786275;29;20130;-85
2021/09/14 07:08:09;;;;;;;19.98;14.13;;;;;;;;;;4759991;30;20039;-84
2021/09/14 07:10:35;;;;;;;20.35;13.95;;;;;;;;;;4758429;30;20039;-84
2021/09/14 07:13:00;;;;;;;23.42;14.40;;;;;;;;;;4756858;30;20050;-84
2021/09/14 07:15:26;;;;;;;24.67;14.55;;;;;;;;;;4759521;30;20118;-84
2021/09/14 07:17:51;;;;;;;19.70;14.77;;;;;;;;;;4789708;29;20473;-85
2021/09/14 07:20:17;;;;;;;26.33;15.27;;;;;;;;;;4786819;30;20043;-86
2021/09/14 07:22:42;;;;;;;19.75;14.07;;;;;;;;;;4778024;30;20039;-84
2021/09/14 07:25:08;;;;;;;20.60;14.82;;;;;;;;;;4795075;29;20035;-85
2021/09/14 07:27:34;;;;;;;20.42;14.95;;;;;;;;;;4774935;30;20295;-83
2021/09/14 07:30:02;;;;;;;21.30;14.40;;;;;;;;;;4774616;30;20031;-85
2021/09/14 07:32:28;;;;;;;19.65;14.35;;;;;;;;;;4772836;30;20050;-85
2021/09/14 07:34:53;;;;;;;22.05;14.88;;;;;;;;;;4787316;30;20434;-84
2021/09/14 07:37:20;;;;;;;21.77;15.65;;;;;;;;;;4790015;30;20043;-85
2021/09/14 07:39:45;;;;;;;23.42;16.30;;;;;;;;;;4759009;30;20130;-85
2021/09/14 07:42:11;;;;;;;21.42;15.77;;;;;;;;;;4771526;30;20488;-85
2021/09/14 07:44:37;;;;;;;22.38;15.48;;;;;;;;;;4789162;29;20519;-84
2021/09/14 07:47:02;;;;;;;22.02;16.10;;;;;;;;;;4759529;30;20066;-84
2021/09/14 07:49:28;;;;;;;23.75;15.95;;;;;;;;;;4775328;30;20039;-83
2021/09/14 07:51:53;;;;;;;21.70;16.55;;;;;;;;;;4774145;30;20043;-85
2021/09/14 07:54:19;;;;;;;24.58;16.38;;;;;;;;;;4760653;30;20059;-85
2021/09/14 07:56:45;;;;;;;24.70;16.58;;;;;;;;;;4790550;30;20114;-85
2021/09/14 07:59:12;;;;;;;23.75;17.02;;;;;;;;;;4745903;30;20074;-84
2021/09/14 08:01:38;;;;;;;22.00;16.50;;;;;;;;;;4758765;30;20042;-83
2021/09/14 08:04:03;;;;;;;22.08;15.73;;;;;;;;;;4762070;30;20039;-84
2021/09/14 08:06:29;;;;;;;22.48;16.35;;;;;;;;;;4767545;30;20044;-84
2021/09/14 08:08:54;;;;;;;21.00;15.85;;;;;;;;;;4794052;29;20084;-85
2021/09/14 08:11:19;;;;;;;24.42;16.63;;;;;;;;;;4783531;30;20027;-85
2021/09/14 08:13:48;;;;;;;22.73;15.90;;;;;;;;;;4773105;30;20038;-83
2021/09/14 08:16:13;;;;;;;19.00;15.45;;;;;;;;;;4775645;29;20495;-84
2021/09/14 08:18:39;;;;;;;22.13;15.25;;;;;;;;;;4775272;30;20043;-83
2021/09/14 08:21:04;;;;;;;21.30;15.48;;;;;;;;;;4781516;30;20035;-84
2021/09/14 08:23:30;;;;;;;20.02;15.32;;;;;;;;;;4775113;30;20062;-85
2021/09/14 08:25:55;;;;;;;21.67;15.57;;;;;;;;;;4774718;30;20043;-84
2021/09/14 08:28:21;;;;;;;19.88;16.27;;;;;;;;;;4790695;30;20039;-84
2021/09/14 08:30:46;;;;;;;22.65;16.00;;;;;;;;;;4791696;30;20027;-85
2021/09/14 08:33:11;;;;;;;21.85;15.65;;;;;;;;;;4787259;30;20027;-84
2021/09/14 08:35:37;;;;;;;21.45;15.00;;;;;;;;;;4789663;30;20479;-85
2021/09/14 08:38:03;;;;;;;21.50;15.68;;;;;;;;;;4760487;30;20507;-85
2021/09/14 08:40:29;;;;;;;23.15;14.52;;;;;;;;;;4793915;29;20132;-84
2021/09/14 08:42:56;;;;;;;18.30;14.63;;;;;;;;;;4790311;30;20513;-84
2021/09/14 08:45:22;;;;;;;20.58;14.80;;;;;;;;;;4760333;30;20041;-84
2021/09/14 08:47:47;;;;;;;21.13;14.88;;;;;;;;;;4790062;30;20399;-84
2021/09/14 08:50:13;;;;;;;18.70;14.00;;;;;;;;;;4774273;30;20074;-84
2021/09/14 08:52:39;;;;;;;26.13;14.02;;;;;;;;;;4774634;30;20062;-86
2021/09/14 08:55:05;;;;;;;20.83;14.07;;;;;;;;;;4787427;29;20607;-86
2021/09/14 08:57:31;;;;;;;18.88;13.50;;;;;;;;;;4759679;30;20120;-85
2021/09/14 08:59:57;;;;;;;17.35;13.05;;;;;;;;;;4775194;30;20064;-84
2021/09/14 09:02:22;;;;;;;18.13;13.50;;;;;;;;;;4774437;30;20035;-84
2021/09/14 09:04:57;;;;;;;18.92;13.38;;;;;;;;;;4774242;30;20039;-86
2021/09/14 09:07:30;;;;;;;20.23;14.35;;;;;;;;;;4774033;30;20034;-85
2021/09/14 09:10:11;;;;;;;19.17;13.77;;;;;;;;;;4773626;30;20449;-85
2021/09/14 09:12:46;;;;;;;17.52;13.18;;;;;;;;;;4787931;30;20480;-86
2021/09/14 09:15:25;;;;;;;19.35;12.80;;;;;;;;;;4758809;30;20039;-85
2021/09/14 09:18:10;;;;;;;18.30;12.43;;;;;;;;;;4788394;30;20035;-86
2021/09/14 09:20:38;;;;;;;18.35;12.45;;;;;;;;;;4766037;30;20035;-84
2021/09/14 09:23:12;;;;;;;17.17;12.55;;;;;;;;;;4789755;30;20043;-85
2021/09/14 09:25:38;;;;;;;16.88;12.85;;;;;;;;;;4790179;30;20055;-86
2021/09/14 09:28:04;;;;;;;17.02;11.93;;;;;;;;;;4772958;30;20047;-86
2021/09/14 09:30:39;;;;;;;16.60;11.65;;;;;;;;;;4773308;30;20031;-86
2021/09/14 09:33:07;;;;;;;18.65;11.52;;;;;;;;;;4789745;30;20030;-86
2021/09/14 09:35:40;;;;;;;16.50;11.18;;;;;;;;;;4770784;30;20028;-86
2021/09/14 09:38:08;;;;;;;16.83;11.45;;;;;;;;;;4764749;30;20036;-82
2021/09/14 09:40:39;;;;;;;16.65;11.13;;;;;;;;;;4786483;30;20039;-81
2021/09/14 09:43:07;;;;;;;18.63;11.77;;;;;;;;;;4790126;30;20031;-82
2021/09/14 09:45:44;;;;;;;15.98;11.10;;;;;;;;;;4775271;30;20106;-83
2021/09/14 09:48:11;;;;;;;17.73;10.90;;;;;;;;;;4791779;30;20039;-82
2021/09/14 09:50:41;;;;;;;17.83;11.32;;;;;;;;;;4772198;30;20455;-83
2021/09/14 09:53:08;;;;;;;14.40;10.35;;;;;;;;;;4797254;29;20100;-81
2021/09/14 09:55:34;;;;;;;14.32;10.63;;;;;;;;;;4776177;30;20088;-82
2021/09/14 09:58:04;;;;;;;13.55;10.27;;;;;;;;;;4789617;30;20561;-83
2021/09/14 10:00:33;;;;;;;16.23;11.40;;;;;;;;;;4770799;30;20027;-81
2021/09/14 10:03:02;;;;;;;14.38;11.38;;;;;;;;;;4789425;30;20038;-84
2021/09/14 10:05:34;;;;;;;13.85;11.02;;;;;;;;;;4774834;30;20030;-83
2021/09/14 10:08:13;;;;;;;14.95;10.68;;;;;;;;;;4787129;30;20507;-82
2021/09/14 10:10:41;;;;;;;15.02;10.90;;;;;;;;;;4790404;30;20031;-82
2021/09/14 10:13:09;;;;;;;14.27;11.23;;;;;;;;;;4751556;30;20510;-83
2021/09/14 10:15:39;;;;;;;15.23;10.77;;;;;;;;;;4771050;30;20405;-83
2021/09/14 10:18:05;;;;;;;13.18;11.07;;;;;;;;;;4776032;30;20035;-83
2021/09/14 10:20:38;;;;;;;13.18;10.98;;;;;;;;;;4775179;30;20042;-83
2021/09/14 10:23:06;;;;;;;14.57;10.68;;;;;;;;;;4775995;30;20548;-83
2021/09/14 10:25:35;;;;;;;12.20;10.73;;;;;;;;;;4774468;30;20091;-83
2021/09/14 10:28:12;;;;;;;12.60;10.50;;;;;;;;;;4788702;30;20127;-83
2021/09/14 10:30:39;;;;;;;13.00;10.20;;;;;;;;;;4789128;30;20027;-83
2021/09/14 10:33:05;;;;;;;12.02;9.95;;;;;;;;;;4777953;30;20035;-82
2021/09/14 10:35:38;;;;;;;13.63;10.02;;;;;;;;;;4779564;30;20484;-83
2021/09/14 10:38:10;;;;;;;12.05;9.85;;;;;;;;;;4786614;30;20024;-84
2021/09/14 10:40:47;;;;;;;12.57;9.45;;;;;;;;;;4785150;29;20169;-83
2021/09/14 10:43:41;;;;;;;11.73;9.48;;;;;;;;;;4785193;30;20449;-83
2021/09/14 10:46:07;;;;;;;14.20;9.98;;;;;;;;;;4771969;30;20096;-84
2021/09/14 10:48:35;;;;;;;12.38;10.63;;;;;;;;;;4790348;30;20031;-83
2021/09/14 10:51:12;;;;;;;12.82;10.00;;;;;;;;;;4788587;30;20034;-83
2021/09/14 10:53:39;;;;;;;12.10;9.88;;;;;;;;;;4788384;30;20642;-82
2021/09/14 10:56:04;;;;;;;12.93;10.43;;;;;;;;;;4774773;30;20035;-83
2021/09/14 10:58:44;;;;;;;12.40;9.65;;;;;;;;;;4789436;30;20567;-82
2021/09/14 11:01:21;;;;;;;16.80;11.00;;;;;;;;;;4782861;30;20033;-83
2021/09/14 11:04:07;;;;;;;12.65;9.63;;;;;;;;;;4790127;30;20118;-83
2021/09/14 11:06:33;;;;;;;12.27;10.27;;;;;;;;;;4787617;30;20055;-83
2021/09/14 11:09:06;;;;;;;11.75;9.65;;;;;;;;;;4788773;30;20118;-83
2021/09/14 11:11:32;;;;;;;11.27;9.63;;;;;;;;;;4787194;30;20038;-83
2021/09/14 11:13:57;;;;;;;15.45;9.40;;;;;;;;;;4789144;30;20063;-83
2021/09/14 11:16:23;;;;;;;12.20;9.80;;;;;;;;;;4773623;30;20047;-83
2021/09/14 11:18:49;;;;;;;15.15;10.10;;;;;;;;;;4757337;30;20035;-82
2021/09/14 11:21:17;;;;;;;14.90;9.90;;;;;;;;;;4785862;30;20038;-83
2021/09/14 11:23:45;;;;;;;11.20;9.52;;;;;;;;;;4784383;30;20488;-83
2021/09/14 11:26:13;;;;;;;12.98;9.38;;;;;;;;;;4786726;30;20039;-82
2021/09/14 11:28:40;;;;;;;11.38;8.90;;;;;;;;;;4768240;30;20042;-83
2021/09/14 11:31:13;;;;;;;13.18;9.15;;;;;;;;;;4776313;30;20043;-83
2021/09/14 11:33:42;;;;;;;13.77;9.73;;;;;;;;;;4784904;30;20031;-83
2021/09/14 11:36:08;;;;;;;14.20;9.82;;;;;;;;;;4763138;30;20034;-83
2021/09/14 11:38:35;;;;;;;13.00;9.35;;;;;;;;;;4786333;30;20039;-82
2021/09/14 11:41:02;;;;;;;11.70;9.68;;;;;;;;;;4772546;30;20082;-83
2021/09/14 11:43:32;;;;;;;11.85;9.18;;;;;;;;;;4783363;30;20031;-82
2021/09/14 11:45:58;;;;;;;12.13;9.07;;;;;;;;;;4783801;30;20036;-82
2021/09/14 11:48:29;;;;;;;11.80;9.05;;;;;;;;;;4786149;30;20035;-83
2021/09/14 11:51:13;;;;;;;9.90;8.63;;;;;;;;;;4786271;29;20050;-83
2021/09/14 11:53:45;;;;;;;11.75;8.65;;;;;;;;;;4793518;29;20062;-83
2021/09/14 11:56:14;;;;;;;10.95;9.10;;;;;;;;;;4786222;30;20202;-83
2021/09/14 11:58:48;;;;;;;12.80;9.43;;;;;;;;;;4788144;30;20039;-82
2021/09/14 12:01:20;;;;;;;13.43;10.30;;;;;;;;;;4790009;30;20589;-84
2021/09/14 12:03:48;;;;;;;13.33;10.13;;;;;;;;;;4787176;30;20493;-83
2021/09/14 12:06:21;;;;;;;10.90;9.32;;;;;;;;;;4788200;30;20093;-84
2021/09/14 12:08:47;;;;;;;11.93;9.27;;;;;;;;;;4787199;30;20043;-82
2021/09/14 12:11:27;;;;;;;14.73;9.52;;;;;;;;;;4773478;30;20088;-83
2021/09/14 12:14:04;;;;;;;10.68;8.95;;;;;;;;;;4789521;30;20019;-84
2021/09/14 12:16:33;;;;;;;11.60;9.07;;;;;;;;;;4770425;30;20035;-84
2021/09/14 12:18:59;;;;;;;10.65;8.45;;;;;;;;;;4789758;30;20024;-82
2021/09/14 12:21:25;;;;;;;12.98;8.85;;;;;;;;;;4787159;30;20088;-83
2021/09/14 12:23:52;;;;;;;11.75;8.50;;;;;;;;;;4772779;30;20440;-83
2021/09/14 12:26:26;;;;;;;11.70;9.23;;;;;;;;;;4760011;30;20126;-84
2021/09/14 12:28:57;;;;;;;10.93;8.43;;;;;;;;;;4787608;29;20043;-82
2021/09/14 12:31:23;;;;;;;11.50;8.88;;;;;;;;;;4789358;30;20060;-85
2021/09/14 12:33:49;;;;;;;11.48;8.43;;;;;;;;;;4778116;30;20705;-86
2021/09/14 12:36:15;;;;;;;10.77;7.95;;;;;;;;;;4778708;30;20028;-85
2021/09/14 12:38:41;;;;;;;12.05;8.82;;;;;;;;;;4785582;30;20117;-85
2021/09/14 12:41:07;;;;;;;12.30;8.70;;;;;;;;;;4766695;30;20419;-86
2021/09/14 12:43:33;;;;;;;10.77;8.32;;;;;;;;;;4770744;30;20039;-85
2021/09/14 12:45:59;;;;;;;10.63;7.70;;;;;;;;;;4789171;30;20373;-86
2021/09/14 12:48:25;;;;;;;10.50;8.00;;;;;;;;;;4789766;30;20118;-85
2021/09/14 12:50:50;;;;;;;10.18;8.48;;;;;;;;;;4785378;30;20035;-85
2021/09/14 12:53:16;;;;;;;12.20;7.90;;;;;;;;;;4764626;30;20420;-85
2021/09/14 12:55:43;;;;;;;13.23;8.57;;;;;;;;;;4768370;30;20035;-85
2021/09/14 12:58:09;;;;;;;9.65;8.35;;;;;;;;;;4759629;30;20035;-86
2021/09/14 13:00:36;;;;;;;8.77;7.82;;;;;;;;;;4773013;30;20035;-84
2021/09/14 13:03:02;;;;;;;10.38;7.68;;;;;;;;;;4774231;30;20039;-85
2021/09/14 13:05:30;;;;;;;8.85;7.30;;;;;;;;;;4788550;30;20088;-84
2021/09/14 13:07:57;;;;;;;12.77;7.82;;;;;;;;;;4773757;30;20460;-85
2021/09/14 13:10:25;;;;;;;12.50;7.45;;;;;;;;;;4773523;30;20400;-85
2021/09/14 13:18:30;;;;;;;10.65;7.95;;;;;;;;;;4789942;30;20042;-85
2021/09/14 13:21:05;;;;;;;13.27;7.60;;;;;;;;;;4788220;30;20417;-85
2021/09/14 13:23:31;;;;;;;10.93;8.52;;;;;;;;;;4789425;30;20528;-84
2021/09/14 13:25:56;;;;;;;13.40;9.10;;;;;;;;;;4773061;30;20026;-85
2021/09/14 13:28:22;;;;;;;11.40;8.95;;;;;;;;;;4773236;30;20086;-84
2021/09/14 13:30:48;;;;;;;12.73;9.68;;;;;;;;;;4775405;30;20123;-85
2021/09/14 13:33:14;;;;;;;12.10;8.48;;;;;;;;;;4789366;30;20034;-85
2021/09/14 13:35:40;;;;;;;10.98;8.32;;;;;;;;;;4786477;30;20046;-85
2021/09/14 13:38:06;;;;;;;9.77;8.10;;;;;;;;;;4770346;30;20096;-86
2021/09/14 13:40:31;;;;;;;12.52;8.70;;;;;;;;;;4754131;30;20073;-85
2021/09/14 13:42:59;;;;;;;10.30;8.27;;;;;;;;;;4774853;30;20027;-83
2021/09/14 13:48:09;;;;;;;10.35;7.50;;;;;;;;;;4768012;30;20104;-84
2021/09/14 13:50:35;;;;;;;10.90;8.27;;;;;;;;;;4789629;30;20030;-84
2021/09/14 13:53:03;;;;;;;11.75;8.35;;;;;;;;;;4788613;30;20039;-83
2021/09/14 13:55:33;;;;;;;12.07;8.30;;;;;;;;;;4768374;30;20083;-84
2021/09/14 13:58:01;;;;;;;12.90;8.10;;;;;;;;;;4788155;30;20046;-83
2021/09/14 14:00:27;;;;;;;15.43;8.30;;;;;;;;;;4773389;30;20039;-83
2021/09/14 14:02:52;;;;;;;13.88;8.32;;;;;;;;;;4781621;29;20538;-83
2021/09/14 14:05:18;;;;;;;12.23;8.30;;;;;;;;;;4767582;30;20031;-84
2021/09/14 14:07:43;;;;;;;12.70;8.48;;;;;;;;;;4780882;29;20039;-84
2021/09/14 14:10:09;;;;;;;10.50;8.35;;;;;;;;;;4767185;30;20126;-84
2021/09/14 14:12:35;;;;;;;11.90;8.30;;;;;;;;;;4767431;29;20050;-83
2021/09/14 14:15:01;;;;;;;10.43;8.32;;;;;;;;;;4778747;30;20031;-85
2021/09/14 14:17:27;;;;;;;10.40;7.93;;;;;;;;;;4782747;30;20038;-84
2021/09/14 14:19:52;;;;;;;10.63;7.57;;;;;;;;;;4782926;30;20123;-85
2021/09/14 14:22:18;;;;;;;9.85;8.43;;;;;;;;;;4780883;30;20168;-83
2021/09/14 14:24:44;;;;;;;12.32;8.70;;;;;;;;;;4782892;29;20050;-83
2021/09/14 14:27:09;;;;;;;11.52;8.13;;;;;;;;;;4763634;30;20374;-84
2021/09/14 14:29:37;;;;;;;11.52;8.95;;;;;;;;;;4750459;30;20046;-83
2021/09/14 14:32:03;;;;;;;12.82;9.32;;;;;;;;;;4754323;29;20055;-84
2021/09/14 14:34:28;;;;;;;13.02;9.18;;;;;;;;;;4753361;30;20130;-84
2021/09/14 14:36:54;;;;;;;14.95;10.25;;;;;;;;;;4771589;30;20427;-84
2021/09/14 14:39:19;;;;;;;12.73;9.77;;;;;;;;;;4771251;30;20496;-85
2021/09/14 14:41:44;;;;;;;18.10;10.32;;;;;;;;;;4773233;30;20036;-84
2021/09/14 14:44:11;;;;;;;13.55;10.48;;;;;;;;;;4773594;30;20108;-85
2021/09/14 14:46:36;;;;;;;14.77;10.52;;;;;;;;;;4786498;30;20039;-83
2021/09/14 14:49:04;;;;;;;15.32;10.43;;;;;;;;;;4757570;30;20134;-84
2021/09/14 14:51:30;;;;;;;13.68;10.30;;;;;;;;;;4783033;30;20058;-84
2021/09/14 14:53:56;;;;;;;14.75;9.50;;;;;;;;;;4769145;30;20524;-83
2021/09/14 14:56:21;;;;;;;13.40;10.23;;;;;;;;;;4793243;29;20043;-83
2021/09/14 14:58:47;;;;;;;14.55;10.80;;;;;;;;;;4788609;30;20031;-84
2021/09/14 15:01:12;;;;;;;15.98;11.18;;;;;;;;;;4786421;30;20530;-84
2021/09/14 15:03:38;;;;;;;13.32;10.77;;;;;;;;;;4769465;30;20093;-85
2021/09/14 15:06:19;;;;;;;15.07;11.02;;;;;;;;;;4789917;30;20081;-83
2021/09/14 15:08:44;;;;;;;14.55;11.65;;;;;;;;;;4786109;30;20027;-84
2021/09/14 15:11:10;;;;;;;15.45;11.25;;;;;;;;;;4772553;30;20046;-84
2021/09/14 15:13:35;;;;;;;18.52;12.32;;;;;;;;;;4772922;30;20054;-83
2021/09/14 15:16:01;;;;;;;14.85;12.75;;;;;;;;;;4772875;30;20043;-84
2021/09/14 15:18:27;;;;;;;15.43;12.02;;;;;;;;;;4774672;30;20040;-84
2021/09/14 15:20:52;;;;;;;17.73;12.27;;;;;;;;;;4744702;30;20046;-84